Česky Dansk Deutsch English Español Suomi Français Magyar Italiano Nederlands norsk Polski Português svenska Türkçe

 

Het Weer

Guarulhos Civ / Mil (Brazilië)

06:00, 15 augustus 2016 (GMT)

NWNNE
WE
SWSSE
Home            
Guarulhos Civ / Mil Marte Civ / Mil Sao Paulo/Congonhas Aeroporto Santos Aeroporto Sao Jose Dos Campo Campinas Aeroporto Guaratingueta Pocos De Caldas Pirassununga Sao Carlos Resende Rio De Janeiro-Santa Cruz Ab Leite Lopes / Ribeir Bauru Paranagua Rio / Jacarepagua Afonsos Aeroporto Galeao Rio De Janeiro Aeroporto Curitiba Aeroporto Curitiba Barbacena Juiz De Fora

Om een weerknop op uw website of weblog te plaatsen, copieer onderstaande code en plak die in uw pagina. In het eerste vakje staat HTML-code, in het tweede vakje UBB-code.


Add to Google

Details

Visibility:Greater than 10000 m, 10 km, 32800 ft, 6.2 miles
Clouds:CAVOC
Temperature:12°C, 54°F
Dew-point:9°C, 48°F
Atmospheric pressure:1015 hPa, 761.3 mmHg, 29.97 inHg, 1.002 atm
Relative humidity:81.9 %
METAR:SBGR 150600Z 00000KT CAVOK 12/09 Q1015

Snelkoppelingen

Actuele weersinformatie van de hele wereld. Voeg locaties toe met het plus (+) symbool. Deze snelkoppelingen kunnen worden toegevoegd aan Google.

Lid van de Technetium groep

website free tracking
StatCounter NetStat W3C Validator

24-10-2020 02:49:37
astro.technetium.be money.technetium.be phote.technetium.be tafeltennistafel.technetium.be www.ligfiets.net